Observations for PISA CIV IT-AFB, Italy (LIRP)

LIRP 221245Z 14008KT 9999 SCT040 BKN060 07/03 Q1005 NOSIG   
LIRP 221215Z 14007KT 9999 SCT040 BKN060 07/03 Q1006 NOSIG   
LIRP 221145Z 14009KT 9999 SCT040 BKN060 07/02 Q1006 NOSIG   
LIRP 221115Z 16006KT 9999 SCT040 BKN060 07/02 Q1007 NOSIG   
LIRP 221045Z 17006KT 9999 SCT040 BKN060 07/02 Q1007 NOSIG   
LIRP 221015Z 15008KT 9999 SCT040 BKN060 06/02 Q1007 NOSIG   
LIRP 220945Z 16006KT 9999 SCT045 BKN060 06/02 Q1007 NOSIG   
LIRP 220915Z 15006KT 9999 SCT045 BKN060 05/02 Q1007 NOSIG   
LIRP 220845Z 15005KT 9999 FEW050 BKN065 05/02 Q1007 NOSIG   
LIRP 220815Z 15004KT 9999 FEW050 BKN065 04/02 Q1007 NOSIG   
LIRP 220745Z 15004KT 9999 FEW050 BKN065 04/02 Q1007 NOSIG   
LIRP 220715Z 17003KT 9999 FEW050 BKN065 04/02 Q1008 NOSIG   
LIRP 220645Z 13004KT 9999 SCT050 BKN070 04/02 Q1008 NOSIG   
LIRP 220615Z 14002KT 9999 SCT050 BKN070 04/01 Q1008 NOSIG   
LIRP 220545Z 15004KT 9999 SCT050 BKN070 05/01 Q1008 NOSIG   
LIRP 220515Z 15003KT 9999 SCT050 BKN070 05/02 Q1008 NOSIG   
LIRP 220445Z 15004KT 9999 SCT050 BKN070 05/02 Q1008 NOSIG   
LIRP 220415Z 12004KT 9999 SCT050 BKN060 05/02 Q1008 NOSIG   
LIRP 220345Z 13004KT 9999 SCT040 BKN060 05/02 Q1009 NOSIG   
LIRP 220315Z 14005KT 9999 SCT050 BKN060 05/02 Q1010 NOSIG   
LIRP 220245Z 14006KT 9999 SCT050 BKN060 06/02 Q1010 NOSIG   
LIRP 220215Z 12006KT 9999 SCT050 BKN060 06/01 Q1010 NOSIG   
LIRP 220145Z 13006KT 9999 SCT050 BKN060 06/01 Q1011 NOSIG   
LIRP 220115Z 11007KT 9999 SCT050 BKN060 07/02 Q1011 NOSIG   
LIRP 220045Z 12007KT 9999 SCT050 BKN060 07/02 Q1011 NOSIG   
LIRP 220015Z 13006KT 9999 SCT040 BKN060 07/01 Q1012 NOSIG   
LIRP 212345Z 10005KT 9999 SCT040 BKN060 07/01 Q1012 NOSIG   
LIRP 212315Z 08008KT 9999 SCT040 BKN060 07/01 Q1012 NOSIG   
LIRP 212245Z 09008KT 9999 SCT040 BKN050 07/01 Q1013 NOSIG   
LIRP 212215Z 09007KT 9999 SCT040 BKN050 07/01 Q1013 NOSIG   
LIRP 212145Z 09010KT 9999 SCT040 BKN050 07/01 Q1013 NOSIG   
LIRP 212115Z 09008KT 9999 SCT040 BKN050 06/01 Q1013 NOSIG   
LIRP 212045Z 12006KT 9999 SCT040 BKN050 06/03 Q1013 NOSIG   
LIRP 212015Z 13007KT 9999 SCT040 BKN050 06/03 Q1013 NOSIG   
LIRP 211945Z 13007KT 9999 SCT040 BKN050 06/03 Q1012 NOSIG   
LIRP 211915Z 13006KT 9999 SCT040 BKN050 06/04 Q1012 NOSIG   
LIRP 211845Z 13004KT 9999 SCT040 BKN050 06/04 Q1012 NOSIG   
LIRP 211815Z 12003KT 9999 SCT040 BKN050 07/04 Q1012 NOSIG   
LIRP 211745Z 17002KT 9999 SCT040 BKN050 07/03 Q1012 NOSIG   
LIRP 211715Z 14003KT 9999 SCT040 BKN050 07/03 Q1012 NOSIG   
LIRP 211645Z 12004KT 9999 SCT040 BKN050 08/03 Q1013 NOSIG   
LIRP 211615Z 10006KT 9999 SCT040 BKN060 08/03 Q1013 NOSIG   
LIRP 211545Z 11008KT 9999 SCT040 BKN060 08/03 Q1013 NOSIG   
LIRP 211515Z 12009KT 9999 SCT040 BKN060 09/03 Q1013 NOSIG   
LIRP 211445Z 10010KT 9999 SCT050 10/02 Q1012 NOSIG  
LIRP 211415Z 09010KT 9999 SCT050 09/02 Q1012 NOSIG  
LIRP 211345Z 10011KT 9999 SCT050 10/02 Q1012 NOSIG  
LIRP 211315Z 10010KT 9999 SCT050 10/03 Q1012 NOSIG  
LIRP 211245Z 10009KT 9999 SCT050 10/02 Q1013 NOSIG  
LIRP 211215Z 10009KT 9999 SCT050 10/03 Q1013 NOSIG